createdAt,value
2022-09-21T00:00:10.226Z,101980.59
2022-09-21T00:02:14.572Z,101983.25
2022-09-21T00:04:19.215Z,101982.22
2022-09-21T00:06:26.199Z,101975.97
2022-09-21T00:08:30.628Z,101977.75
2022-09-21T00:10:35.519Z,101979.56
2022-09-21T00:12:40.041Z,101978.63
2022-09-21T00:14:44.425Z,101978.63
2022-09-21T00:16:48.316Z,101971.47
2022-09-21T00:18:52.638Z,101976.81
2022-09-21T00:20:57.065Z,101978.63
2022-09-21T00:23:02.769Z,101979.47
2022-09-21T00:25:08.167Z,101974.16
2022-09-21T00:27:12.128Z,101979.47
2022-09-21T00:29:15.891Z,101981.19
2022-09-21T00:31:20.159Z,101978.63
2022-09-21T00:33:24.913Z,101979.47
2022-09-21T00:35:29.089Z,101975.88
2022-09-21T00:37:33.287Z,101979.28
2022-09-21T00:39:38.813Z,101976.56
2022-09-21T00:41:42.801Z,101981.78
2022-09-21T00:43:49.272Z,101982.53
2022-09-21T00:46:00.000Z,101978.94
2022-09-21T00:48:04.816Z,101974.56
2022-09-21T00:50:14.311Z,101970.94
2022-09-21T00:52:20.171Z,101978.94
2022-09-21T00:54:28.477Z,101971.91
2022-09-21T00:56:33.862Z,101971.03
2022-09-21T00:58:42.311Z,101959.63
2022-09-21T01:00:46.323Z,101966.75
2022-09-21T01:02:51.226Z,101963.06
2022-09-21T01:04:56.630Z,101967.44
2022-09-21T01:07:05.798Z,101959.38
2022-09-21T01:09:11.043Z,101961.06
2022-09-21T01:11:31.269Z,101955.72
2022-09-21T01:13:49.781Z,101962.78
2022-09-21T01:16:03.812Z,101968.78
2022-09-21T01:18:18.719Z,101953.66
2022-09-21T01:20:54.146Z,101955.56
2022-09-21T01:23:09.929Z,101956.41
2022-09-21T01:25:29.103Z,101951.19
2022-09-21T01:27:59.484Z,101951.09
2022-09-21T01:30:09.170Z,101951.78
2022-09-21T01:32:18.858Z,101943.69
2022-09-21T01:34:29.750Z,101955.03
2022-09-21T01:36:35.448Z,101955.91
2022-09-21T01:38:43.705Z,101944.22
2022-09-21T01:40:53.274Z,101940.69
2022-09-21T01:42:59.098Z,101938.00
2022-09-21T01:45:08.750Z,101937.16
2022-09-21T01:47:14.638Z,101936.66
2022-09-21T01:49:23.982Z,101931.59
2022-09-21T01:51:30.268Z,101938.81
2022-09-21T01:53:39.126Z,101944.03
2022-09-21T01:55:47.175Z,101944.03
2022-09-21T01:57:56.630Z,101943.09
2022-09-21T02:00:02.102Z,101936.34
2022-09-21T02:02:20.762Z,101938.41
2022-09-21T02:04:24.872Z,101932.31
2022-09-21T02:06:31.383Z,101928.97
2022-09-21T02:08:35.486Z,101930.84
2022-09-21T02:10:44.224Z,101914.88
2022-09-21T02:12:48.542Z,101918.41
2022-09-21T02:14:56.662Z,101913.28
2022-09-21T02:17:10.635Z,101911.81
2022-09-21T02:19:23.332Z,101904.94
2022-09-21T02:21:33.291Z,101907.91
2022-09-21T02:23:49.484Z,101905.66
2022-09-21T02:26:03.466Z,101902.16
2022-09-21T02:28:14.248Z,101897.78
2022-09-21T02:30:20.379Z,101900.72
2022-09-21T02:32:35.347Z,101900.91
2022-09-21T02:34:47.606Z,101899.19
2022-09-21T02:36:57.134Z,101900.03
2022-09-21T02:39:06.433Z,101909.81
2022-09-21T02:41:17.052Z,101896.63
2022-09-21T02:43:24.317Z,101899.28
2022-09-21T02:45:30.390Z,101890.41
2022-09-21T02:47:39.773Z,101897.47
2022-09-21T02:49:51.411Z,101884.16
2022-09-21T02:52:00.071Z,101892.22
2022-09-21T02:54:06.713Z,101885.09
2022-09-21T02:56:11.842Z,101890.41
2022-09-21T02:58:18.039Z,101880.66
2022-09-21T03:00:21.751Z,101880.81
2022-09-21T03:02:25.211Z,101881.91
2022-09-21T03:04:29.202Z,101880.22
2022-09-21T03:06:34.375Z,101870.63
2022-09-21T03:08:37.638Z,101872.41
2022-09-21T03:10:41.059Z,101874.31
2022-09-21T03:12:44.844Z,101874.31
2022-09-21T03:14:48.232Z,101872.69
2022-09-21T03:16:51.594Z,101869.19
2022-09-21T03:18:54.889Z,101871.06
2022-09-21T03:20:58.474Z,101875.44
2022-09-21T03:23:04.073Z,101878.00
2022-09-21T03:25:09.317Z,101876.19
2022-09-21T03:27:12.721Z,101869.94
2022-09-21T03:29:16.213Z,101865.53
2022-09-21T03:31:19.615Z,101869.19
2022-09-21T03:33:23.323Z,101872.59
2022-09-21T03:35:27.020Z,101869.94
2022-09-21T03:37:31.203Z,101865.31
2022-09-21T03:39:36.757Z,101864.38
2022-09-21T03:41:40.096Z,101861.63
2022-09-21T03:43:43.443Z,101867.69
2022-09-21T03:45:48.364Z,101860.63
2022-09-21T03:47:51.665Z,101860.56
2022-09-21T03:49:55.203Z,101857.97
2022-09-21T03:51:59.650Z,101858.84
2022-09-21T03:54:02.968Z,101857.97
2022-09-21T03:56:07.886Z,101857.13
2022-09-21T03:58:11.262Z,101856.09
2022-09-21T04:00:15.394Z,101853.53
2022-09-21T04:02:18.884Z,101850.78
2022-09-21T04:04:22.411Z,101853.44
2022-09-21T04:06:26.658Z,101845.47
2022-09-21T04:08:30.270Z,101852.59
2022-09-21T04:10:33.958Z,101851.63
2022-09-21T04:12:38.805Z,101852.50
2022-09-21T04:14:42.096Z,101853.34
2022-09-21T04:16:45.469Z,101851.47
2022-09-21T04:18:50.408Z,101847.84
2022-09-21T04:20:53.788Z,101848.72
2022-09-21T04:22:58.198Z,101854.03
2022-09-21T04:25:01.621Z,101856.69
2022-09-21T04:27:05.306Z,101857.63
2022-09-21T04:29:15.582Z,101862.03
2022-09-21T04:31:19.497Z,101862.97
2022-09-21T04:33:24.312Z,101859.50
2022-09-21T04:35:28.152Z,101864.84
2022-09-21T04:37:31.768Z,101871.13
2022-09-21T04:39:36.271Z,101868.47
2022-09-21T04:41:39.963Z,101865.03
2022-09-21T04:43:44.838Z,101856.38
2022-09-21T04:45:50.500Z,101870.72
2022-09-21T04:47:54.467Z,101859.38
2022-09-21T04:49:58.478Z,101854.06
2022-09-21T04:52:03.311Z,101851.31
2022-09-21T04:54:08.014Z,101854.91
2022-09-21T04:56:14.581Z,101854.91
2022-09-21T04:58:24.502Z,101858.34
2022-09-21T05:00:28.658Z,101865.41
2022-09-21T05:02:34.406Z,101864.41
2022-09-21T05:04:38.541Z,101858.16
2022-09-21T05:06:42.469Z,101862.53
2022-09-21T05:09:03.621Z,101856.38
2022-09-21T05:11:08.430Z,101866.94
2022-09-21T05:13:13.971Z,101860.63
2022-09-21T05:15:20.692Z,101867.59
2022-09-21T05:17:25.340Z,101857.81
2022-09-21T05:19:30.623Z,101864.84
2022-09-21T05:21:34.839Z,101867.44
2022-09-21T05:23:38.594Z,101868.28
2022-09-21T05:25:42.505Z,101868.28
2022-09-21T05:27:46.150Z,101866.38
2022-09-21T05:29:50.573Z,101867.91
2022-09-21T05:31:57.460Z,101867.75
2022-09-21T05:34:07.763Z,101867.56
2022-09-21T05:36:32.037Z,101870.13
2022-09-21T05:38:36.465Z,101864.63
2022-09-21T05:40:40.742Z,101862.66
2022-09-21T05:42:45.200Z,101858.00
2022-09-21T05:44:50.799Z,101866.84
2022-09-21T05:47:01.005Z,101867.69
2022-09-21T05:49:07.872Z,101864.19
2022-09-21T05:51:26.849Z,101858.94
2022-09-21T05:53:48.223Z,101854.56
2022-09-21T05:55:58.675Z,101855.50
2022-09-21T05:58:11.715Z,101853.72
2022-09-21T06:00:20.289Z,101856.56
2022-09-21T06:02:46.441Z,101851.31
2022-09-21T06:04:52.240Z,101849.72
2022-09-21T06:06:57.710Z,101844.56
2022-09-21T06:09:01.788Z,101851.78
2022-09-21T06:11:05.720Z,101843.91
2022-09-21T06:13:09.293Z,101842.19
2022-09-21T06:15:15.621Z,101851.94
2022-09-21T06:17:19.780Z,101845.88
2022-09-21T06:19:23.799Z,101840.44
2022-09-21T06:21:30.016Z,101848.25
2022-09-21T06:23:36.279Z,101853.41
2022-09-21T06:25:40.604Z,101842.69
2022-09-21T06:27:44.319Z,101844.41
2022-09-21T06:29:48.008Z,101854.66
2022-09-21T06:31:52.432Z,101849.00
2022-09-21T06:33:56.328Z,101858.41
2022-09-21T06:36:01.252Z,101849.09
2022-09-21T06:38:06.929Z,101847.88
2022-09-21T06:40:12.488Z,101858.06
2022-09-21T06:42:16.154Z,101843.44
2022-09-21T06:44:19.824Z,101844.69
2022-09-21T06:46:23.515Z,101849.31
2022-09-21T06:48:27.360Z,101855.38
2022-09-21T06:50:31.393Z,101847.38
2022-09-21T06:52:35.231Z,101843.19
2022-09-21T06:54:39.863Z,101840.22
2022-09-21T06:56:45.407Z,101848.09
2022-09-21T06:58:49.117Z,101842.78
2022-09-21T07:00:52.714Z,101846.22
2022-09-21T07:02:56.832Z,101847.72
2022-09-21T07:05:00.790Z,101843.81
2022-09-21T07:07:05.175Z,101843.31
2022-09-21T07:11:35.691Z,101836.22
2022-09-21T07:13:40.891Z,101838.50
2022-09-21T07:15:44.619Z,101835.50
2022-09-21T07:18:05.517Z,101835.22
2022-09-21T07:20:10.498Z,101840.13
2022-09-21T07:22:14.086Z,101840.63
2022-09-21T07:24:17.824Z,101834.22
2022-09-21T07:26:22.908Z,101834.78
2022-09-21T07:28:26.727Z,101833.63
2022-09-21T07:30:31.874Z,101826.25
2022-09-21T07:32:36.410Z,101822.41
2022-09-21T07:34:39.897Z,101829.34
2022-09-21T07:36:43.869Z,101822.34
2022-09-21T07:38:47.451Z,101822.34
2022-09-21T07:40:51.229Z,101822.13
2022-09-21T07:42:58.684Z,101825.72
2022-09-21T07:45:04.883Z,101828.50
2022-09-21T07:47:10.444Z,101822.00
2022-09-21T07:49:15.095Z,101829.91
2022-09-21T07:51:18.780Z,101818.28
2022-09-21T07:53:22.867Z,101826.28
2022-09-21T07:55:26.723Z,101813.66
2022-09-21T07:57:47.978Z,101813.66
2022-09-21T07:59:51.608Z,101819.00
2022-09-21T08:01:55.295Z,101805.56
2022-09-21T08:04:01.788Z,101812.50
2022-09-21T08:06:06.200Z,101806.97
2022-09-21T08:08:10.708Z,101812.31
2022-09-21T08:10:14.651Z,101804.09
2022-09-21T08:12:19.011Z,101798.97
2022-09-21T08:14:26.363Z,101807.94
2022-09-21T08:16:32.501Z,101791.78
2022-09-21T08:18:39.637Z,101798.84
2022-09-21T08:20:44.912Z,101804.09
2022-09-21T08:22:49.196Z,101793.19
2022-09-21T08:24:53.229Z,101792.97
2022-09-21T08:26:57.195Z,101797.47
2022-09-21T08:29:01.142Z,101789.88
2022-09-21T08:31:07.953Z,101795.31
2022-09-21T08:33:11.917Z,101790.06
2022-09-21T08:35:15.815Z,101789.97
2022-09-21T08:37:22.488Z,101788.25
2022-09-21T08:39:26.767Z,101788.44
2022-09-21T08:41:54.181Z,101793.03
2022-09-21T08:44:04.884Z,101786.56
2022-09-21T08:46:14.837Z,101791.13
2022-09-21T08:48:29.057Z,101791.69
2022-09-21T08:50:39.860Z,101792.00
2022-09-21T08:52:47.777Z,101788.59
2022-09-21T08:54:56.970Z,101788.25
2022-09-21T08:57:05.506Z,101797.19
2022-09-21T08:59:16.091Z,101790.88
2022-09-21T09:01:34.549Z,101799.75
2022-09-21T09:03:58.886Z,101793.69
2022-09-21T09:06:13.672Z,101794.78
2022-09-21T09:08:59.753Z,101793.94
2022-09-21T09:11:16.093Z,101789.22
2022-09-21T09:13:43.477Z,101794.22
2022-09-21T09:15:58.883Z,101798.22
2022-09-21T09:18:10.934Z,101792.13
2022-09-21T09:20:20.535Z,101798.59
2022-09-21T09:22:31.027Z,101796.50
2022-09-21T09:24:43.448Z,101792.72
2022-09-21T09:26:50.568Z,101785.97
2022-09-21T09:29:00.554Z,101790.94
2022-09-21T09:31:12.438Z,101788.56
2022-09-21T09:33:24.382Z,101795.19
2022-09-21T09:35:30.763Z,101787.34
2022-09-21T09:37:39.991Z,101785.66
2022-09-21T09:39:46.988Z,101779.41
2022-09-21T09:42:20.294Z,101778.31
2022-09-21T09:44:40.173Z,101772.34
2022-09-21T09:46:55.627Z,101771.75
2022-09-21T09:49:15.430Z,101767.69
2022-09-21T09:51:19.567Z,101764.59
2022-09-21T09:53:26.614Z,101767.44
2022-09-21T09:55:39.748Z,101770.50
2022-09-21T09:57:43.171Z,101760.59
2022-09-21T09:59:54.727Z,101767.06
2022-09-21T10:02:03.791Z,101760.63
2022-09-21T10:04:08.810Z,101762.56
2022-09-21T10:06:32.279Z,101755.53
2022-09-21T10:08:44.345Z,101762.00
2022-09-21T10:10:50.003Z,101748.13
2022-09-21T10:12:54.631Z,101747.50
2022-09-21T10:15:01.578Z,101744.63
2022-09-21T10:17:08.869Z,101737.38
2022-09-21T10:19:18.960Z,101743.75
2022-09-21T10:21:25.384Z,101739.00
2022-09-21T10:23:31.143Z,101751.59
2022-09-21T10:25:38.146Z,101746.88
2022-09-21T10:27:49.001Z,101745.22
2022-09-21T10:29:52.768Z,101739.47
2022-09-21T10:31:58.063Z,101741.63
2022-09-21T10:34:14.559Z,101743.84
2022-09-21T10:36:31.833Z,101733.88
2022-09-21T10:38:36.596Z,101734.22
2022-09-21T10:40:41.830Z,101732.59
2022-09-21T10:42:49.665Z,101737.00
2022-09-21T10:45:05.481Z,101738.50
2022-09-21T10:47:20.893Z,101725.59
2022-09-21T10:49:27.510Z,101730.97
2022-09-21T10:51:35.148Z,101731.81
2022-09-21T10:53:39.074Z,101730.97
2022-09-21T10:55:58.350Z,101734.16
2022-09-21T10:58:13.735Z,101730.41
2022-09-21T11:00:36.381Z,101729.78
2022-09-21T11:02:43.383Z,101730.31
2022-09-21T11:04:52.539Z,101730.78
2022-09-21T11:07:04.429Z,101734.84
2022-09-21T11:09:14.827Z,101732.66
2022-09-21T11:11:39.673Z,101721.19
2022-09-21T11:13:52.144Z,101721.06
2022-09-21T11:16:01.159Z,101716.31
2022-09-21T11:18:11.726Z,101708.41
2022-09-21T11:20:26.128Z,101719.13
2022-09-21T11:22:41.952Z,101717.91
2022-09-21T11:24:52.626Z,101710.69
2022-09-21T11:27:06.055Z,101707.88
2022-09-21T11:29:18.104Z,101696.94
2022-09-21T11:31:45.806Z,101699.06
2022-09-21T11:34:08.447Z,101696.47
2022-09-21T11:36:23.570Z,101690.19
2022-09-21T11:38:43.275Z,101696.34
2022-09-21T11:41:15.590Z,101691.06
2022-09-21T11:43:34.126Z,101689.03
2022-09-21T11:46:08.359Z,101687.59
2022-09-21T11:48:26.477Z,101683.56
2022-09-21T11:53:26.417Z,101680.97
2022-09-21T11:55:59.794Z,101687.03
2022-09-21T11:58:12.122Z,101682.78
2022-09-21T12:00:18.671Z,101681.50
2022-09-21T12:02:55.331Z,101676.06
2022-09-21T12:05:08.049Z,101674.03
2022-09-21T12:07:30.655Z,101676.66
2022-09-21T12:10:00.056Z,101666.25
2022-09-21T12:12:11.294Z,101673.00
2022-09-21T12:14:23.590Z,101674.97
2022-09-21T12:16:37.825Z,101664.59
2022-09-21T12:18:50.410Z,101665.16
2022-09-21T12:21:09.562Z,101667.50
2022-09-21T12:23:18.825Z,101668.72
2022-09-21T12:25:27.612Z,101664.00
2022-09-21T12:27:35.388Z,101667.22
2022-09-21T12:29:47.543Z,101661.50
2022-09-21T12:32:03.752Z,101660.06
2022-09-21T12:34:18.043Z,101657.59
2022-09-21T12:36:28.926Z,101657.13
2022-09-21T12:38:37.579Z,101662.50
2022-09-21T12:40:50.209Z,101655.44
2022-09-21T12:42:59.973Z,101644.84
2022-09-21T12:45:09.377Z,101638.03
2022-09-21T12:47:16.548Z,101628.41
2022-09-21T12:49:24.708Z,101639.13
2022-09-21T12:51:35.727Z,101629.09
2022-09-21T12:53:42.195Z,101630.94
2022-09-21T12:55:54.647Z,101624.47
2022-09-21T12:58:18.318Z,101627.28
2022-09-21T13:00:23.602Z,101619.25
2022-09-21T13:02:36.184Z,101618.25
2022-09-21T13:04:53.575Z,101619.25
2022-09-21T13:07:41.166Z,101624.22
2022-09-21T13:09:46.658Z,101627.63
2022-09-21T13:11:56.749Z,101625.09
2022-09-21T13:14:03.743Z,101630.19
2022-09-21T13:16:09.001Z,101628.63
2022-09-21T13:18:22.044Z,101630.31
2022-09-21T13:20:25.746Z,101627.63
2022-09-21T13:22:35.024Z,101620.56
2022-09-21T13:24:38.652Z,101623.25
2022-09-21T13:26:44.761Z,101623.25
2022-09-21T13:29:20.460Z,101620.03
2022-09-21T13:31:49.664Z,101613.59
2022-09-21T13:34:21.021Z,101599.06
2022-09-21T13:36:36.552Z,101604.06
2022-09-21T13:39:17.703Z,101592.81
2022-09-21T13:41:51.893Z,101593.97
2022-09-21T13:44:05.109Z,101601.91
2022-09-21T13:46:09.320Z,101590.31
2022-09-21T13:48:21.372Z,101599.34
2022-09-21T13:50:28.756Z,101592.16
2022-09-21T13:52:46.612Z,101595.53
2022-09-21T13:54:55.103Z,101590.31
2022-09-21T13:57:18.021Z,101592.16
2022-09-21T13:59:26.354Z,101581.22
2022-09-21T14:01:50.977Z,101586.13
2022-09-21T14:04:00.152Z,101576.28
2022-09-21T14:06:07.731Z,101588.66
2022-09-21T14:08:23.856Z,101580.00
2022-09-21T14:10:32.311Z,101572.78
2022-09-21T14:12:45.312Z,101574.50
2022-09-21T14:15:25.813Z,101565.75
2022-09-21T14:17:37.940Z,101571.69
2022-09-21T14:20:08.300Z,101564.09
2022-09-21T14:22:40.883Z,101555.44
2022-09-21T14:24:45.932Z,101565.63
2022-09-21T14:27:03.289Z,101562.59
2022-09-21T14:29:27.362Z,101572.19
2022-09-21T14:31:35.799Z,101567.28
2022-09-21T14:33:50.172Z,101561.66
2022-09-21T14:35:56.023Z,101561.25
2022-09-21T14:38:02.480Z,101562.56
2022-09-21T14:40:18.202Z,101562.41
2022-09-21T14:42:29.485Z,101549.59
2022-09-21T14:44:36.013Z,101553.44
2022-09-21T14:46:54.522Z,101542.28
2022-09-21T14:49:15.307Z,101537.63
2022-09-21T14:51:25.245Z,101534.81
2022-09-21T14:53:56.616Z,101524.81
2022-09-21T14:56:33.530Z,101519.00
2022-09-21T14:58:52.762Z,101494.09
2022-09-21T15:00:59.751Z,101508.53
2022-09-21T15:03:25.111Z,101498.03
2022-09-21T15:05:35.700Z,101492.09
2022-09-21T15:08:05.594Z,101486.75
2022-09-21T15:10:42.639Z,101497.47
2022-09-21T15:12:55.067Z,101509.34
2022-09-21T15:15:07.293Z,101500.41
2022-09-21T15:17:25.448Z,101508.59
2022-09-21T15:19:30.629Z,101513.72
2022-09-21T15:21:34.627Z,101513.00
2022-09-21T15:23:41.033Z,101509.34
2022-09-21T15:25:58.916Z,101509.34
2022-09-21T15:28:04.442Z,101507.63
2022-09-21T15:30:21.945Z,101510.44
2022-09-21T15:32:38.146Z,101500.97
2022-09-21T15:34:42.050Z,101499.13
2022-09-21T15:36:45.868Z,101489.94
2022-09-21T15:38:50.724Z,101490.81
2022-09-21T15:40:54.350Z,101493.38
2022-09-21T15:43:04.823Z,101485.19
2022-09-21T15:45:19.352Z,101481.50
2022-09-21T15:47:29.504Z,101493.09
2022-09-21T15:49:35.050Z,101474.28
2022-09-21T15:51:41.939Z,101477.13
2022-09-21T15:53:48.580Z,101484.44
2022-09-21T15:55:52.710Z,101484.44
2022-09-21T15:57:57.661Z,101487.13
2022-09-21T16:00:03.367Z,101474.00
2022-09-21T16:02:20.686Z,101467.78
2022-09-21T16:04:26.087Z,101452.78
2022-09-21T16:06:38.936Z,101448.53
2022-09-21T16:08:42.585Z,101447.81
2022-09-21T16:10:47.110Z,101438.09
2022-09-21T16:12:51.938Z,101443.59
2022-09-21T16:14:54.690Z,101448.22
2022-09-21T16:17:24.163Z,101448.50
2022-09-21T16:19:42.350Z,101448.75
2022-09-21T16:21:46.055Z,101451.56
2022-09-21T16:23:50.732Z,101446.47
2022-09-21T16:26:00.882Z,101435.06
2022-09-21T16:28:07.275Z,101448.72
2022-09-21T16:30:41.792Z,101433.72
2022-09-21T16:32:48.308Z,101434.75
2022-09-21T16:34:54.466Z,101435.72
2022-09-21T16:36:58.272Z,101433.13
2022-09-21T16:39:06.344Z,101434.25
2022-09-21T16:41:11.353Z,101427.44
2022-09-21T16:43:15.614Z,101430.41
2022-09-21T16:45:31.556Z,101434.34
2022-09-21T16:47:39.454Z,101437.25
2022-09-21T16:49:44.696Z,101428.78
2022-09-21T16:51:50.855Z,101424.78
2022-09-21T16:53:55.326Z,101419.97
2022-09-21T16:55:59.012Z,101421.34
2022-09-21T16:58:02.905Z,101412.84
2022-09-21T17:00:11.958Z,101410.44
2022-09-21T17:02:15.896Z,101415.06
2022-09-21T17:04:20.123Z,101410.22
2022-09-21T17:06:24.424Z,101413.88
2022-09-21T17:08:30.549Z,101412.91
2022-09-21T17:10:38.945Z,101412.78
2022-09-21T17:12:43.100Z,101410.66
2022-09-21T17:14:47.589Z,101409.97
2022-09-21T17:16:55.016Z,101396.56
2022-09-21T17:18:59.571Z,101399.25
2022-09-21T17:21:04.691Z,101391.34
2022-09-21T17:23:08.287Z,101396.97
2022-09-21T17:25:13.311Z,101402.31
2022-09-21T17:27:18.629Z,101390.75
2022-09-21T17:29:26.549Z,101399.03
2022-09-21T17:31:30.370Z,101402.00
2022-09-21T17:33:34.241Z,101396.88
2022-09-21T17:35:39.943Z,101399.94
2022-09-21T17:37:43.549Z,101401.19
2022-09-21T17:39:47.506Z,101397.69
2022-09-21T17:41:55.291Z,101404.13
2022-09-21T17:44:06.813Z,101410.00
2022-09-21T17:46:21.545Z,101403.06
2022-09-21T17:48:29.498Z,101396.13
2022-09-21T17:50:36.150Z,101398.09
2022-09-21T17:52:59.081Z,101403.72
2022-09-21T17:55:08.444Z,101402.28
2022-09-21T17:57:32.681Z,101399.94
2022-09-21T17:59:37.815Z,101392.91
2022-09-21T18:01:41.909Z,101405.56
2022-09-21T18:03:46.418Z,101394.22
2022-09-21T18:05:51.865Z,101391.94
2022-09-21T18:07:56.734Z,101400.25
2022-09-21T18:10:01.463Z,101396.97
2022-09-21T18:12:47.765Z,101399.16
2022-09-21T18:15:02.515Z,101404.78
2022-09-21T18:17:20.986Z,101404.16
2022-09-21T18:19:36.747Z,101410.75
2022-09-21T18:21:45.583Z,101416.34
2022-09-21T18:24:05.401Z,101407.59
2022-09-21T18:26:13.821Z,101410.78
2022-09-21T18:28:24.915Z,101411.03
2022-09-21T18:30:29.498Z,101407.03
2022-09-21T18:32:49.472Z,101414.31
2022-09-21T18:35:13.584Z,101414.69
2022-09-21T18:37:24.095Z,101411.28
2022-09-21T18:39:37.180Z,101409.69
2022-09-21T18:41:47.851Z,101423.19
2022-09-21T18:44:10.712Z,101414.31
2022-09-21T18:46:19.945Z,101403.13
2022-09-21T18:48:42.218Z,101404.22
2022-09-21T18:50:52.857Z,101408.75
2022-09-21T18:53:05.336Z,101403.50
2022-09-21T18:55:19.443Z,101402.78
2022-09-21T18:57:24.881Z,101408.38
2022-09-21T18:59:33.226Z,101403.88
2022-09-21T19:01:38.383Z,101408.38
2022-09-21T19:03:44.890Z,101407.53
2022-09-21T19:06:14.058Z,101413.72
2022-09-21T19:08:24.285Z,101401.31
2022-09-21T19:10:35.146Z,101403.28
2022-09-21T19:12:54.943Z,101409.72
2022-09-21T19:15:17.501Z,101391.97
2022-09-21T19:17:35.931Z,101400.22
2022-09-21T19:19:48.442Z,101400.34
2022-09-21T19:21:58.588Z,101394.88
2022-09-21T19:24:13.986Z,101393.19
2022-09-21T19:26:23.341Z,101390.75
2022-09-21T19:28:48.948Z,101381.88
2022-09-21T19:31:00.498Z,101379.44
2022-09-21T19:33:45.541Z,101375.06
2022-09-21T19:35:44.911Z,101374.09
2022-09-21T19:37:51.232Z,101361.59
2022-09-21T19:39:56.548Z,101377.72
2022-09-21T19:42:10.233Z,101380.41
2022-09-21T19:44:30.398Z,101377.00
2022-09-21T19:46:44.941Z,101376.28
2022-09-21T19:48:51.190Z,101383.47
2022-09-21T19:50:57.465Z,101380.00
2022-09-21T19:53:15.845Z,101381.84
2022-09-21T19:55:40.711Z,101382.81
2022-09-21T19:58:03.319Z,101388.28
2022-09-21T20:00:11.485Z,101382.94
2022-09-21T20:02:22.385Z,101386.56
2022-09-21T20:04:35.356Z,101382.09
2022-09-21T20:06:46.234Z,101376.75
2022-09-21T20:08:57.312Z,101372.47
2022-09-21T20:11:12.064Z,101372.59
2022-09-21T20:13:29.597Z,101367.50
2022-09-21T20:15:40.713Z,101378.28
2022-09-21T20:17:52.133Z,101387.31
2022-09-21T20:20:07.203Z,101381.09
2022-09-21T20:22:14.809Z,101380.25
2022-09-21T20:24:25.179Z,101390.09
2022-09-21T20:26:30.741Z,101388.16
2022-09-21T20:28:37.290Z,101388.16
2022-09-21T20:30:41.767Z,101376.50
2022-09-21T20:32:48.451Z,101370.19
2022-09-21T20:34:52.686Z,101364.72
2022-09-21T20:36:56.789Z,101356.56
2022-09-21T20:39:01.159Z,101358.38
2022-09-21T20:41:05.445Z,101355.47
2022-09-21T20:43:10.836Z,101346.59
2022-09-21T20:45:15.435Z,101342.34
2022-09-21T20:47:19.884Z,101338.94
2022-09-21T20:49:25.367Z,101332.75
2022-09-21T20:51:29.131Z,101335.53
2022-09-21T20:53:33.073Z,101333.84
2022-09-21T20:55:37.326Z,101332.75
2022-09-21T20:57:42.760Z,101329.09
2022-09-21T20:59:46.948Z,101331.06
2022-09-21T21:01:50.722Z,101332.75
2022-09-21T21:04:02.489Z,101324.00
2022-09-21T21:06:12.590Z,101325.59
2022-09-21T21:08:16.511Z,101327.41
2022-09-21T21:10:22.016Z,101315.84
2022-09-21T21:12:26.163Z,101321.19
2022-09-21T21:14:30.955Z,101316.72
2022-09-21T21:16:37.491Z,101310.50
2022-09-21T21:18:42.266Z,101317.69
2022-09-21T21:20:46.948Z,101300.78
2022-09-21T21:22:53.960Z,101297.28
2022-09-21T21:24:56.489Z,101291.94
2022-09-21T21:27:02.883Z,101294.59
2022-09-21T21:29:08.476Z,101292.91
2022-09-21T21:31:13.057Z,101294.72
2022-09-21T21:33:18.296Z,101283.19
2022-09-21T21:35:22.312Z,101292.91
2022-09-21T21:37:27.989Z,101291.22
2022-09-21T21:39:34.582Z,101287.69
2022-09-21T21:41:38.251Z,101289.38
2022-09-21T21:43:43.080Z,101290.22
2022-09-21T21:45:55.149Z,101287.56
2022-09-21T21:48:03.017Z,101291.09
2022-09-21T21:50:07.431Z,101288.53
2022-09-21T21:52:13.141Z,101284.03
2022-09-21T21:54:18.555Z,101290.22
2022-09-21T21:56:24.268Z,101285.75
2022-09-21T21:58:28.370Z,101283.19
2022-09-21T22:00:32.009Z,101280.53
2022-09-21T22:02:36.876Z,101279.53
2022-09-21T22:04:40.712Z,101280.41
2022-09-21T22:06:45.468Z,101288.41
2022-09-21T22:08:49.238Z,101282.19
2022-09-21T22:10:54.156Z,101279.53
2022-09-21T22:12:59.683Z,101284.88
2022-09-21T22:15:04.184Z,101274.19
2022-09-21T22:17:07.746Z,101268.00
2022-09-21T22:19:11.961Z,101274.19
2022-09-21T22:21:18.194Z,101278.56
2022-09-21T22:23:21.853Z,101275.06
2022-09-21T22:25:25.980Z,101277.72
2022-09-21T22:27:30.068Z,101276.72
2022-09-21T22:29:36.017Z,101276.84
2022-09-21T22:31:43.246Z,101273.97
2022-09-21T22:33:47.712Z,101265.06
2022-09-21T22:35:52.150Z,101264.94
2022-09-21T22:37:56.370Z,101271.16
2022-09-21T22:40:00.273Z,101272.00
2022-09-21T22:42:05.472Z,101272.97
2022-09-21T22:44:10.731Z,101268.50
2022-09-21T22:46:16.872Z,101264.81
2022-09-21T22:48:21.449Z,101263.03
2022-09-21T22:50:25.444Z,101269.31
2022-09-21T22:52:29.604Z,101266.66
2022-09-21T22:54:33.339Z,101265.81
2022-09-21T22:56:37.225Z,101268.63
2022-09-21T22:58:43.210Z,101266.91
2022-09-21T23:00:47.601Z,101258.75
2022-09-21T23:02:57.570Z,101257.94
2022-09-21T23:05:01.833Z,101257.94
2022-09-21T23:07:05.890Z,101254.25
2022-09-21T23:09:11.367Z,101248.91
2022-09-21T23:11:17.755Z,101241.88
2022-09-21T23:13:21.559Z,101245.41
2022-09-21T23:15:25.205Z,101245.41
2022-09-21T23:17:29.887Z,101246.25
2022-09-21T23:19:35.491Z,101249.78
2022-09-21T23:21:39.173Z,101255.97
2022-09-21T23:23:43.564Z,101250.63
2022-09-21T23:25:47.480Z,101250.63
2022-09-21T23:27:51.225Z,101250.63
2022-09-21T23:29:55.039Z,101255.13
2022-09-21T23:31:58.723Z,101244.44
2022-09-21T23:34:08.864Z,101243.44
2022-09-21T23:36:16.433Z,101237.25
2022-09-21T23:38:20.199Z,101244.44
2022-09-21T23:40:24.068Z,101241.63
2022-09-21T23:42:27.817Z,101238.09
2022-09-21T23:44:31.803Z,101243.34
2022-09-21T23:46:37.530Z,101245.00
2022-09-21T23:48:41.569Z,101235.19
2022-09-21T23:50:45.666Z,101221.97
2022-09-21T23:52:51.111Z,101232.66
2022-09-21T23:54:54.926Z,101232.66
2022-09-21T23:56:58.730Z,101231.78
2022-09-21T23:59:03.116Z,101228.28
